地図

経路データ

SID SEASON NUMBER BASIN SUBBASIN NAME ISO_TIME NATURE LAT LON WMO_WIND WMO_PRES WMO_AGENCY TRACK_TYPE DIST2LAND LANDFALL IFLAG USA_AGENCY USA_ATCF_ID USA_LAT USA_LON USA_RECORD USA_STATUS USA_WIND USA_PRES USA_SSHS USA_R34_NE USA_R34_SE USA_R34_SW USA_R34_NW USA_R50_NE USA_R50_SE USA_R50_SW USA_R50_NW USA_R64_NE USA_R64_SE USA_R64_SW USA_R64_NW USA_POCI USA_ROCI USA_RMW USA_EYE TOKYO_LAT TOKYO_LON TOKYO_GRADE TOKYO_WIND TOKYO_PRES TOKYO_R50_DIR TOKYO_R50_LONG TOKYO_R50_SHORT TOKYO_R30_DIR TOKYO_R30_LONG TOKYO_R30_SHORT TOKYO_LAND CMA_LAT CMA_LON CMA_CAT CMA_WIND CMA_PRES HKO_LAT HKO_LON HKO_CAT HKO_WIND HKO_PRES NEWDELHI_LAT NEWDELHI_LON NEWDELHI_GRADE NEWDELHI_WIND NEWDELHI_PRES NEWDELHI_CI NEWDELHI_DP NEWDELHI_POCI REUNION_LAT REUNION_LON REUNION_TYPE REUNION_WIND REUNION_PRES REUNION_TNUM REUNION_CI REUNION_RMW REUNION_R34_NE REUNION_R34_SE REUNION_R34_SW REUNION_R34_NW REUNION_R50_NE REUNION_R50_SE REUNION_R50_SW REUNION_R50_NW REUNION_R64_NE REUNION_R64_SE REUNION_R64_SW REUNION_R64_NW BOM_LAT BOM_LON BOM_TYPE BOM_WIND BOM_PRES BOM_TNUM BOM_CI BOM_RMW BOM_R34_NE BOM_R34_SE BOM_R34_SW BOM_R34_NW BOM_R50_NE BOM_R50_SE BOM_R50_SW BOM_R50_NW BOM_R64_NE BOM_R64_SE BOM_R64_SW BOM_R64_NW BOM_ROCI BOM_POCI BOM_EYE BOM_POS_METHOD BOM_PRES_METHOD NADI_LAT NADI_LON NADI_CAT NADI_WIND NADI_PRES WELLINGTON_LAT WELLINGTON_LON WELLINGTON_WIND WELLINGTON_PRES DS824_LAT DS824_LON DS824_STAGE DS824_WIND DS824_PRES TD9636_LAT TD9636_LON TD9636_STAGE TD9636_WIND TD9636_PRES TD9635_LAT TD9635_LON TD9635_WIND TD9635_PRES TD9635_ROCI NEUMANN_LAT NEUMANN_LON NEUMANN_CLASS NEUMANN_WIND NEUMANN_PRES MLC_LAT MLC_LON MLC_CLASS MLC_WIND MLC_PRES USA_GUST BOM_GUST BOM_GUST_PER REUNION_GUST REUNION_GUST_PER USA_SEAHGT USA_SEARAD_NE USA_SEARAD_SE USA_SEARAD_SW USA_SEARAD_NW STORM_SPEED STORM_DIR
1995234N13327 1995 51 NA NA HUMBERTO 1995-08-22 00:00:00 TS 13.2000 -33.0000 30 1009 hurdat_atl main 1681 1681 O_____________ hurdat_atl AL091995 13.2000 -33.0000 TD 30 1009 -1 14 290
1995234N13327 1995 51 NA NA HUMBERTO 1995-08-22 03:00:00 TS 13.4480 -33.6922 main 1754 1752 P_____________ AL091995 13.4480 -33.6922 TD 32 1007 -1 14 292
1995234N13327 1995 51 NA NA HUMBERTO 1995-08-22 06:00:00 TS 13.7000 -34.3000 35 1005 hurdat_atl main 1814 1814 O_____________ hurdat_atl AL091995 13.7000 -34.3000 TS 35 1005 0 12 296
1995234N13327 1995 51 NA NA HUMBERTO 1995-08-22 09:00:00 TS 13.9572 -34.7727 main 1865 1865 P_____________ AL091995 13.9572 -34.7727 TS 40 1003 0 10 300
1995234N13327 1995 51 NA NA HUMBERTO 1995-08-22 12:00:00 TS 14.2000 -35.2000 45 1002 hurdat_atl main 1907 1907 O_____________ hurdat_atl AL091995 14.2000 -35.2000 TS 45 1002 0 10 298
1995234N13327 1995 51 NA NA HUMBERTO 1995-08-22 15:00:00 TS 14.4224 -35.6850 main 1959 1959 P_____________ AL091995 14.4224 -35.6850 TS 47 1000 0 11 292
1995234N13327 1995 51 NA NA HUMBERTO 1995-08-22 18:00:00 TS 14.6000 -36.2000 50 998 hurdat_atl main 2000 1979 O_____________ hurdat_atl AL091995 14.6000 -36.2000 TS 50 998 0 11 286
1995234N13327 1995 51 NA NA HUMBERTO 1995-08-22 21:00:00 TS 14.7225 -36.7501 main 1970 1932 P_____________ AL091995 14.7225 -36.7501 TS 55 996 0 11 281
1995234N13327 1995 51 NA NA HUMBERTO 1995-08-23 00:00:00 TS 14.8000 -37.3000 60 995 hurdat_atl main 1932 1896 O_____________ hurdat_atl AL091995 14.8000 -37.3000 TS 60 995 0 10 277
1995234N13327 1995 51 NA NA HUMBERTO 1995-08-23 03:00:00 TS 14.8574 -37.8151 main 1896 1854 P_____________ AL091995 14.8574 -37.8151 TS 62 991 0 10 276
1995234N13327 1995 51 NA NA HUMBERTO 1995-08-23 06:00:00 TS 14.9000 -38.3000 65 987 hurdat_atl main 1854 1820 O_____________ hurdat_atl AL091995 14.9000 -38.3000 HU 65 987 1 9 276
1995234N13327 1995 51 NA NA HUMBERTO 1995-08-23 09:00:00 TS 14.9498 -38.7425 main 1820 1786 P_____________ AL091995 14.9498 -38.7425 HU 67 986 1 9 277
1995234N13327 1995 51 NA NA HUMBERTO 1995-08-23 12:00:00 TS 15.0000 -39.2000 70 985 hurdat_atl main 1786 1746 O_____________ hurdat_atl AL091995 15.0000 -39.2000 HU 70 985 1 10 276
1995234N13327 1995 51 NA NA HUMBERTO 1995-08-23 15:00:00 TS 15.0502 -39.7650 main 1746 1707 P_____________ AL091995 15.0502 -39.7650 HU 72 983 1 11 275
1995234N13327 1995 51 NA NA HUMBERTO 1995-08-23 18:00:00 TS 15.1000 -40.3000 75 982 hurdat_atl main 1707 1684 O_____________ hurdat_atl AL091995 15.1000 -40.3000 HU 75 982 1 9 277
1995234N13327 1995 51 NA NA HUMBERTO 1995-08-23 21:00:00 TS 15.1497 -40.6650 main 1676 1662 P_____________ AL091995 15.1497 -40.6650 HU 77 978 1 7 278
1995234N13327 1995 51 NA NA HUMBERTO 1995-08-24 00:00:00 TS 15.2000 -41.0000 80 975 hurdat_atl main 1662 1632 O_____________ hurdat_atl AL091995 15.2000 -41.0000 HU 80 975 1 8 278
1995234N13327 1995 51 NA NA HUMBERTO 1995-08-24 03:00:00 TS 15.2501 -41.4500 main 1640 1605 P_____________ AL091995 15.2501 -41.4500 HU 82 974 1 9 277
1995234N13327 1995 51 NA NA HUMBERTO 1995-08-24 06:00:00 TS 15.3000 -41.9000 85 973 hurdat_atl main 1605 1577 O_____________ hurdat_atl AL091995 15.3000 -41.9000 HU 85 973 2 8 276
1995234N13327 1995 51 NA NA HUMBERTO 1995-08-24 09:00:00 TS 15.3349 -42.2726 main 1577 1566 P_____________ AL091995 15.3349 -42.2726 HU 87 972 2 7 278
1995234N13327 1995 51 NA NA HUMBERTO 1995-08-24 12:00:00 TS 15.4000 -42.6000 90 971 hurdat_atl main 1566 1555 O_____________ hurdat_atl AL091995 15.4000 -42.6000 HU 90 971 2 6 287
1995234N13327 1995 51 NA NA HUMBERTO 1995-08-24 15:00:00 TS 15.5274 -42.9075 main 1555 1551 P_____________ AL091995 15.5274 -42.9075 HU 92 969 2 7 297
1995234N13327 1995 51 NA NA HUMBERTO 1995-08-24 18:00:00 TS 15.7000 -43.2000 95 968 hurdat_atl main 1554 1547 O_____________ hurdat_atl AL091995 15.7000 -43.2000 HU 95 968 2 7 302
1995234N13327 1995 51 NA NA HUMBERTO 1995-08-24 21:00:00 TS 15.8775 -43.5001 main 1554 1548 P_____________ AL091995 15.8775 -43.5001 HU 92 969 2 7 305
1995234N13327 1995 51 NA NA HUMBERTO 1995-08-25 00:00:00 TS 16.1000 -43.8000 90 970 hurdat_atl main 1553 1548 O_____________ hurdat_atl AL091995 16.1000 -43.8000 HU 90 970 2 8 310
1995234N13327 1995 51 NA NA HUMBERTO 1995-08-25 03:00:00 TS 16.3624 -44.0927 main 1559 1553 P_____________ AL091995 16.3624 -44.0927 HU 90 970 2 8 316
1995234N13327 1995 51 NA NA HUMBERTO 1995-08-25 06:00:00 TS 16.7000 -44.4000 90 970 hurdat_atl main 1567 1567 O_____________ hurdat_atl AL091995 16.7000 -44.4000 HU 90 970 2 10 321
1995234N13327 1995 51 NA NA HUMBERTO 1995-08-25 09:00:00 TS 17.1274 -44.7351 main 1586 1586 P_____________ AL091995 17.1274 -44.7351 HU 90 970 2 11 323
1995234N13327 1995 51 NA NA HUMBERTO 1995-08-25 12:00:00 TS 17.6000 -45.1000 90 970 hurdat_atl main 1610 1610 O_____________ hurdat_atl AL091995 17.6000 -45.1000 HU 90 970 2 12 322
1995234N13327 1995 51 NA NA HUMBERTO 1995-08-25 15:00:00 TS 18.0500 -45.5001 main 1637 1632 P_____________ AL091995 18.0500 -45.5001 HU 90 970 2 12 320
1995234N13327 1995 51 NA NA HUMBERTO 1995-08-25 18:00:00 TS 18.5000 -45.9000 90 970 hurdat_atl main 1657 1657 O_____________ hurdat_atl AL091995 18.5000 -45.9000 HU 90 970 2 12 322
1995234N13327 1995 51 NA NA HUMBERTO 1995-08-25 21:00:00 TS 18.9724 -46.2650 main 1688 1688 P_____________ AL091995 18.9724 -46.2650 HU 90 970 2 11 324
1995234N13327 1995 51 NA NA HUMBERTO 1995-08-26 00:00:00 TS 19.4000 -46.6000 90 970 hurdat_atl main 1715 1715 O_____________ hurdat_atl AL091995 19.4000 -46.6000 HU 90 970 2 10 320
1995234N13327 1995 51 NA NA HUMBERTO 1995-08-26 03:00:00 TS 19.7225 -46.9227 main 1734 1734 P_____________ AL091995 19.7225 -46.9227 HU 90 970 2 8 317
1995234N13327 1995 51 NA NA HUMBERTO 1995-08-26 06:00:00 TS 20.0000 -47.2000 90 970 hurdat_atl main 1750 1750 O_____________ hurdat_atl AL091995 20.0000 -47.2000 HU 90 970 2 7 321
1995234N13327 1995 51 NA NA HUMBERTO 1995-08-26 09:00:00 TS 20.2849 -47.4152 main 1771 1771 P_____________ AL091995 20.2849 -47.4152 HU 87 971 2 7 328
1995234N13327 1995 51 NA NA HUMBERTO 1995-08-26 12:00:00 TS 20.6000 -47.6000 85 972 hurdat_atl main 1793 1793 O_____________ hurdat_atl AL091995 20.6000 -47.6000 HU 85 972 2 8 332
1995234N13327 1995 51 NA NA HUMBERTO 1995-08-26 15:00:00 TS 20.9850 -47.8149 main 1821 1819 P_____________ AL091995 20.9850 -47.8149 HU 82 973 1 9 335
1995234N13327 1995 51 NA NA HUMBERTO 1995-08-26 18:00:00 TS 21.4000 -48.0000 80 975 hurdat_atl main 1832 1831 O_____________ hurdat_atl AL091995 21.4000 -48.0000 HU 80 975 1 9 340
1995234N13327 1995 51 NA NA HUMBERTO 1995-08-26 21:00:00 TS 21.8075 -48.1449 main 1852 1844 P_____________ AL091995 21.8075 -48.1449 HU 80 977 1 8 347
1995234N13327 1995 51 NA NA HUMBERTO 1995-08-27 00:00:00 TS 22.2000 -48.2000 80 980 hurdat_atl main 1862 1862 O_____________ hurdat_atl AL091995 22.2000 -48.2000 HU 80 980 1 7 3
1995234N13327 1995 51 NA NA HUMBERTO 1995-08-27 03:00:00 TS 22.5200 -48.1004 main 1878 1878 P_____________ AL091995 22.5200 -48.1004 HU 77 981 1 7 15
1995234N13327 1995 51 NA NA HUMBERTO 1995-08-27 06:00:00 TS 22.9000 -48.0000 75 982 hurdat_atl main 1897 1897 O_____________ hurdat_atl AL091995 22.9000 -48.0000 HU 75 982 1 9 2
1995234N13327 1995 51 NA NA HUMBERTO 1995-08-27 09:00:00 TS 23.4550 -48.0698 main 1902 1902 P_____________ AL091995 23.4550 -48.0698 HU 72 983 1 12 351
1995234N13327 1995 51 NA NA HUMBERTO 1995-08-27 12:00:00 TS 24.1000 -48.2000 70 984 hurdat_atl main 1910 1910 O_____________ hurdat_atl AL091995 24.1000 -48.2000 HU 70 984 1 13 351
1995234N13327 1995 51 NA NA HUMBERTO 1995-08-27 15:00:00 TS 24.7650 -48.3000 main 1923 1923 P_____________ AL091995 24.7650 -48.3000 HU 70 985 1 13 352
1995234N13327 1995 51 NA NA HUMBERTO 1995-08-27 18:00:00 TS 25.4000 -48.4000 70 986 hurdat_atl main 1936 1936 O_____________ hurdat_atl AL091995 25.4000 -48.4000 HU 70 986 1 12 351
1995234N13327 1995 51 NA NA HUMBERTO 1995-08-27 21:00:00 TS 25.9450 -48.5001 main 1947 1947 P_____________ AL091995 25.9450 -48.5001 HU 67 989 1 10 350
1995234N13327 1995 51 NA NA HUMBERTO 1995-08-28 00:00:00 TS 26.4000 -48.6000 65 992 hurdat_atl main 1959 1959 O_____________ hurdat_atl AL091995 26.4000 -48.6000 HU 65 992 1 9 348
1995234N13327 1995 51 NA NA HUMBERTO 1995-08-28 03:00:00 TS 26.7800 -48.6927 main 1969 1969 P_____________ AL091995 26.7800 -48.6927 HU 65 993 1 7 346
1995234N13327 1995 51 NA NA HUMBERTO 1995-08-28 06:00:00 TS 27.1000 -48.8000 65 994 hurdat_atl main 1974 1970 O_____________ hurdat_atl AL091995 27.1000 -48.8000 HU 65 994 1 7 339
1995234N13327 1995 51 NA NA HUMBERTO 1995-08-28 09:00:00 TS 27.4000 -48.9500 main 1971 1971 P_____________ AL091995 27.4000 -48.9500 HU 65 992 1 7 336
1995234N13327 1995 51 NA NA HUMBERTO 1995-08-28 12:00:00 TS 27.7000 -49.1000 65 991 hurdat_atl main 1978 1978 O_____________ hurdat_atl AL091995 27.7000 -49.1000 HU 65 991 1 7 340
1995234N13327 1995 51 NA NA HUMBERTO 1995-08-28 15:00:00 TS 28.0500 -49.2150 main 1986 1986 P_____________ AL091995 28.0500 -49.2150 HU 65 989 1 7 346
1995234N13327 1995 51 NA NA HUMBERTO 1995-08-28 18:00:00 TS 28.4000 -49.3000 65 987 hurdat_atl main 1999 1999 O_____________ hurdat_atl AL091995 28.4000 -49.3000 HU 65 987 1 7 349
1995234N13327 1995 51 NA NA HUMBERTO 1995-08-28 21:00:00 TS 28.7150 -49.3650 main 2008 1987 P_____________ AL091995 28.7150 -49.3650 HU 65 986 1 6 352
1995234N13327 1995 51 NA NA HUMBERTO 1995-08-29 00:00:00 TS 29.0000 -49.4000 65 985 hurdat_atl main 1987 1965 O_____________ hurdat_atl AL091995 29.0000 -49.4000 HU 65 985 1 5 354
1995234N13327 1995 51 NA NA HUMBERTO 1995-08-29 03:00:00 TS 29.2575 -49.4225 main 1954 1932 P_____________ AL091995 29.2575 -49.4225 HU 67 984 1 5 2
1995234N13327 1995 51 NA NA HUMBERTO 1995-08-29 06:00:00 TS 29.5000 -49.4000 70 983 hurdat_atl main 1932 1910 O_____________ hurdat_atl AL091995 29.5000 -49.4000 HU 70 983 1 5 10
1995234N13327 1995 51 NA NA HUMBERTO 1995-08-29 09:00:00 TS 29.7425 -49.3225 main 1911 1880 P_____________ AL091995 29.7425 -49.3225 HU 72 982 1 5 19
1995234N13327 1995 51 NA NA HUMBERTO 1995-08-29 12:00:00 TS 30.0000 -49.2000 75 981 hurdat_atl main 1880 1848 O_____________ hurdat_atl AL091995 30.0000 -49.2000 HU 75 981 1 6 21
1995234N13327 1995 51 NA NA HUMBERTO 1995-08-29 15:00:00 TS 30.2849 -49.0797 main 1848 1819 P_____________ AL091995 30.2849 -49.0797 HU 75 980 1 7 23
1995234N13327 1995 51 NA NA HUMBERTO 1995-08-29 18:00:00 TS 30.6000 -48.9000 75 979 hurdat_atl main 1819 1789 O_____________ hurdat_atl AL091995 30.6000 -48.9000 HU 75 979 1 7 31
1995234N13327 1995 51 NA NA HUMBERTO 1995-08-29 21:00:00 TS 30.8822 -48.6660 main 1789 1753 P_____________ AL091995 30.8822 -48.6660 HU 77 978 1 9 36
1995234N13327 1995 51 NA NA HUMBERTO 1995-08-30 00:00:00 TS 31.3000 -48.3000 80 978 hurdat_atl main 1753 1688 O_____________ hurdat_atl AL091995 31.3000 -48.3000 HU 80 978 1 14 34
1995234N13327 1995 51 NA NA HUMBERTO 1995-08-30 03:00:00 TS 32.0126 -47.7609 main 1688 1620 P_____________ AL091995 32.0126 -47.7609 HU 80 977 1 18 34
1995234N13327 1995 51 NA NA HUMBERTO 1995-08-30 06:00:00 TS 32.8000 -47.1000 80 976 hurdat_atl main 1620 1573 O_____________ hurdat_atl AL091995 32.8000 -47.1000 HU 80 976 1 18 38
1995234N13327 1995 51 NA NA HUMBERTO 1995-08-30 09:00:00 TS 33.4219 -46.4359 main 1576 1537 P_____________ AL091995 33.4219 -46.4359 HU 80 975 1 17 44
1995234N13327 1995 51 NA NA HUMBERTO 1995-08-30 12:00:00 TS 34.0000 -45.7000 80 974 hurdat_atl main 1537 1501 O_____________ hurdat_atl AL091995 34.0000 -45.7000 HU 80 974 1 18 46
1995234N13327 1995 51 NA NA HUMBERTO 1995-08-30 15:00:00 TS 34.6292 -44.9022 main 1504 1477 P_____________ AL091995 34.6292 -44.9022 HU 80 972 1 18 49
1995234N13327 1995 51 NA NA HUMBERTO 1995-08-30 18:00:00 TS 35.2000 -44.0000 80 971 hurdat_atl main 1481 1476 O_____________ hurdat_atl AL091995 35.2000 -44.0000 HU 80 971 1 19 58
1995234N13327 1995 51 NA NA HUMBERTO 1995-08-30 21:00:00 TS 35.6077 -42.9628 main 1488 1488 P_____________ AL091995 35.6077 -42.9628 HU 80 970 1 19 65
1995234N13327 1995 51 NA NA HUMBERTO 1995-08-31 00:00:00 TS 36.0000 -41.9000 80 970 hurdat_atl main 1505 1501 O_____________ hurdat_atl AL091995 36.0000 -41.9000 HU 80 970 1 19 62
1995234N13327 1995 51 NA NA HUMBERTO 1995-08-31 03:00:00 TS 36.5202 -40.8681 main 1513 1510 P_____________ AL091995 36.5202 -40.8681 HU 80 970 1 19 54
1995234N13327 1995 51 NA NA HUMBERTO 1995-08-31 06:00:00 TS 37.1000 -40.0000 80 971 hurdat_atl main 1514 1495 O_____________ hurdat_atl AL091995 37.1000 -40.0000 HU 80 971 1 17 44
1995234N13327 1995 51 NA NA HUMBERTO 1995-08-31 09:00:00 TS 37.7213 -39.4163 main 1501 1479 P_____________ AL091995 37.7213 -39.4163 HU 75 978 1 14 33
1995234N13327 1995 51 NA NA HUMBERTO 1995-08-31 12:00:00 TS 38.3000 -39.0000 70 985 hurdat_atl main 1479 1467 O_____________ hurdat_atl AL091995 38.3000 -39.0000 HU 70 985 1 12 32
1995234N13327 1995 51 NA NA HUMBERTO 1995-08-31 15:00:00 TS 38.7218 -38.6131 main 1473 1463 P_____________ AL091995 38.7218 -38.6131 HU 65 990 1 10 38
1995234N13327 1995 51 NA NA HUMBERTO 1995-08-31 18:00:00 TS 39.1000 -38.2000 60 995 hurdat_atl main 1470 1468 O_____________ hurdat_atl AL091995 39.1000 -38.2000 TS 60 995 0 11 43
1995234N13327 1995 51 NA NA HUMBERTO 1995-08-31 21:00:00 TS 39.5311 -37.6477 main 1481 1475 P_____________ AL091995 39.5311 -37.6477 TS 52 997 0 13 46
1995234N13327 1995 51 NA NA HUMBERTO 1995-09-01 00:00:00 TS 40.0000 -37.0000 45 1000 hurdat_atl main 1489 O_____________ hurdat_atl AL091995 40.0000 -37.0000 TS 45 1000 0 14 47

IBTrACS Databaseについて

本データベースは、米国NOAAが公開する1842年以降の世界の熱帯低気圧のベストトラックデータアーカイブInternational Best Track Archive for Climate Stewardship (IBTrACS)を、ウェブで閲覧しやすい形式に変換したものです。

最終更新日:2021-10-27